createdAt,value
2022-09-29T00:01:16.085Z,6.90
2022-09-29T00:03:44.463Z,8.60
2022-09-29T00:06:15.735Z,7.90
2022-09-29T00:11:17.011Z,10.20
2022-09-29T00:13:47.174Z,9.20
2022-09-29T00:16:18.376Z,8.80
2022-09-29T00:18:46.760Z,7.50
2022-09-29T00:21:21.821Z,10.00
2022-09-29T00:23:52.710Z,8.30
2022-09-29T00:26:23.473Z,6.30
2022-09-29T00:28:57.234Z,6.70
2022-09-29T00:31:28.796Z,7.20
2022-09-29T00:33:57.622Z,6.80
2022-09-29T00:36:30.417Z,6.70
2022-09-29T00:38:59.275Z,8.70
2022-09-29T00:41:34.717Z,7.70
2022-09-29T00:44:07.477Z,8.10
2022-09-29T00:46:56.603Z,8.40
2022-09-29T00:49:43.483Z,9.20
2022-09-29T00:52:21.443Z,9.90
2022-09-29T00:54:55.454Z,6.90
2022-09-29T00:57:31.752Z,5.30
2022-09-29T01:00:08.312Z,6.70
2022-09-29T01:06:13.147Z,5.90
2022-09-29T01:08:47.458Z,6.30
2022-09-29T01:11:16.927Z,7.90
2022-09-29T01:13:45.286Z,5.80
2022-09-29T01:16:13.374Z,6.00
2022-09-29T01:18:43.584Z,5.50
2022-09-29T01:21:30.116Z,5.80
2022-09-29T01:24:16.354Z,7.00
2022-09-29T01:27:08.498Z,7.20
2022-09-29T01:29:56.647Z,4.60
2022-09-29T01:32:46.150Z,6.20
2022-09-29T01:35:43.653Z,5.30
2022-09-29T01:38:43.719Z,6.90
2022-09-29T01:41:27.878Z,5.90
2022-09-29T01:44:04.960Z,5.80
2022-09-29T01:47:08.777Z,5.80
2022-09-29T01:49:43.479Z,6.10
2022-09-29T01:52:15.812Z,6.00
2022-09-29T01:54:59.584Z,4.10
2022-09-29T01:57:31.974Z,4.70
2022-09-29T02:00:09.891Z,5.70
2022-09-29T02:02:46.945Z,4.60
2022-09-29T02:05:38.163Z,5.80
2022-09-29T02:08:18.979Z,6.70
2022-09-29T02:10:54.104Z,6.30
2022-09-29T02:13:24.855Z,5.20
2022-09-29T02:15:55.957Z,5.80
2022-09-29T02:18:30.909Z,7.10
2022-09-29T02:20:59.085Z,6.20
2022-09-29T02:23:27.362Z,5.60
2022-09-29T02:25:58.583Z,5.90
2022-09-29T02:28:27.273Z,6.90
2022-09-29T02:30:55.490Z,6.60
2022-09-29T02:33:25.842Z,5.60
2022-09-29T02:36:08.083Z,9.80
2022-09-29T02:38:47.509Z,5.60
2022-09-29T02:41:40.152Z,6.80
2022-09-29T02:44:29.831Z,6.00
2022-09-29T02:47:15.227Z,5.40
2022-09-29T02:50:07.032Z,6.90
2022-09-29T02:53:00.688Z,6.00
2022-09-29T02:55:43.619Z,6.50
2022-09-29T02:58:21.442Z,7.20
2022-09-29T03:00:49.929Z,7.00
2022-09-29T03:03:18.330Z,7.50
2022-09-29T03:05:46.604Z,6.60
2022-09-29T03:08:14.656Z,5.50
2022-09-29T03:10:42.861Z,5.60
2022-09-29T03:13:11.000Z,6.30
2022-09-29T03:15:39.107Z,8.80
2022-09-29T03:18:10.281Z,6.60
2022-09-29T03:20:38.664Z,7.60
2022-09-29T03:23:06.796Z,6.80
2022-09-29T03:25:35.222Z,6.30
2022-09-29T03:28:03.350Z,7.20
2022-09-29T03:30:31.620Z,6.40
2022-09-29T03:32:59.852Z,7.00
2022-09-29T03:35:28.582Z,7.10
2022-09-29T03:38:00.807Z,9.20
2022-09-29T03:40:29.366Z,7.00
2022-09-29T03:42:57.496Z,6.10
2022-09-29T03:45:25.715Z,6.90
2022-09-29T03:47:53.877Z,5.00
2022-09-29T03:50:22.035Z,7.00
2022-09-29T03:52:50.098Z,6.40
2022-09-29T03:55:18.171Z,7.40
2022-09-29T03:57:46.358Z,8.10
2022-09-29T04:00:14.802Z,7.10
2022-09-29T04:02:43.006Z,7.90
2022-09-29T04:05:11.080Z,6.20
2022-09-29T04:07:39.413Z,8.20
2022-09-29T04:10:07.835Z,6.30
2022-09-29T04:12:36.292Z,6.60
2022-09-29T04:15:04.932Z,7.10
2022-09-29T04:17:33.283Z,6.90
2022-09-29T04:20:01.679Z,7.40
2022-09-29T04:22:29.837Z,7.40
2022-09-29T04:24:58.431Z,6.50
2022-09-29T04:27:26.608Z,7.10
2022-09-29T04:29:54.756Z,8.10
2022-09-29T04:32:24.748Z,7.70
2022-09-29T04:34:52.842Z,9.00
2022-09-29T04:37:24.660Z,8.90
2022-09-29T04:39:54.267Z,9.70
2022-09-29T04:42:22.383Z,5.70
2022-09-29T04:44:50.599Z,5.30
2022-09-29T04:47:18.892Z,7.10
2022-09-29T04:49:47.163Z,6.40
2022-09-29T04:52:15.435Z,6.70
2022-09-29T04:54:43.655Z,7.40
2022-09-29T04:57:12.022Z,9.20
2022-09-29T04:59:40.115Z,9.00
2022-09-29T05:02:08.457Z,10.00
2022-09-29T05:04:36.600Z,11.20
2022-09-29T05:07:04.825Z,9.20
2022-09-29T05:09:34.152Z,10.40
2022-09-29T05:12:02.701Z,11.30
2022-09-29T05:14:31.143Z,9.20
2022-09-29T05:16:59.461Z,8.40
2022-09-29T05:19:27.713Z,9.80
2022-09-29T05:21:56.740Z,10.40
2022-09-29T05:24:25.799Z,7.80
2022-09-29T05:26:58.323Z,9.30
2022-09-29T05:29:27.178Z,9.80
2022-09-29T05:31:55.305Z,9.80
2022-09-29T05:34:23.377Z,9.30
2022-09-29T05:36:51.700Z,11.50
2022-09-29T05:39:21.189Z,9.90
2022-09-29T05:41:49.693Z,8.20
2022-09-29T05:44:18.210Z,7.70
2022-09-29T05:46:46.665Z,10.60
2022-09-29T05:49:14.784Z,11.00
2022-09-29T05:51:43.296Z,11.90
2022-09-29T05:54:11.418Z,12.90
2022-09-29T05:56:44.417Z,8.40
2022-09-29T05:59:13.725Z,12.60
2022-09-29T06:01:42.376Z,9.40
2022-09-29T06:04:11.011Z,10.20
2022-09-29T06:06:40.563Z,13.00
2022-09-29T06:09:09.674Z,11.80
2022-09-29T06:11:37.835Z,14.00
2022-09-29T06:14:06.341Z,10.10
2022-09-29T06:16:34.817Z,10.70
2022-09-29T06:19:04.133Z,9.10
2022-09-29T06:21:35.477Z,11.70
2022-09-29T06:24:04.512Z,12.70
2022-09-29T06:26:32.744Z,11.90
2022-09-29T06:29:01.850Z,10.90
2022-09-29T06:31:31.270Z,11.30
2022-09-29T06:34:02.428Z,10.10
2022-09-29T06:37:09.363Z,12.20
2022-09-29T06:39:38.138Z,10.80
2022-09-29T06:42:06.887Z,11.90
2022-09-29T06:44:35.867Z,9.70
2022-09-29T06:47:04.144Z,12.90
2022-09-29T06:49:32.405Z,11.30
2022-09-29T06:52:05.019Z,11.30
2022-09-29T06:54:40.541Z,11.20
2022-09-29T06:57:10.068Z,11.30
2022-09-29T06:59:38.182Z,9.50
2022-09-29T07:02:06.750Z,12.30
2022-09-29T07:04:34.909Z,11.30
2022-09-29T07:07:03.154Z,11.40
2022-09-29T07:09:32.143Z,8.80
2022-09-29T07:12:00.370Z,11.80
2022-09-29T07:14:28.409Z,9.10
2022-09-29T07:16:59.068Z,8.50
2022-09-29T07:19:27.134Z,9.40
2022-09-29T07:21:55.248Z,8.70
2022-09-29T07:24:25.389Z,9.30
2022-09-29T07:26:53.527Z,10.20
2022-09-29T07:29:21.681Z,10.50
2022-09-29T07:31:53.069Z,9.40
2022-09-29T07:34:23.447Z,9.40
2022-09-29T07:36:52.766Z,9.90
2022-09-29T07:39:22.641Z,11.50
2022-09-29T07:41:52.057Z,10.40
2022-09-29T07:44:20.861Z,8.50
2022-09-29T07:46:50.118Z,8.50
2022-09-29T07:49:18.914Z,8.40
2022-09-29T07:51:48.086Z,7.10
2022-09-29T07:54:16.633Z,6.50
2022-09-29T07:56:44.665Z,8.30
2022-09-29T07:59:13.247Z,7.50
2022-09-29T08:01:41.569Z,8.80
2022-09-29T08:04:09.743Z,5.60
2022-09-29T08:06:38.325Z,6.10
2022-09-29T08:09:07.013Z,4.80
2022-09-29T08:11:39.230Z,5.00
2022-09-29T08:14:09.983Z,7.20
2022-09-29T08:16:39.245Z,7.60
2022-09-29T08:19:07.569Z,7.00
2022-09-29T08:21:37.421Z,5.60
2022-09-29T08:24:06.926Z,5.50
2022-09-29T08:26:43.490Z,4.70
2022-09-29T08:29:17.194Z,4.80
2022-09-29T08:31:46.624Z,4.30
2022-09-29T08:34:16.226Z,3.60
2022-09-29T08:36:45.252Z,3.50
2022-09-29T08:39:15.659Z,4.20
2022-09-29T08:41:51.256Z,5.10
2022-09-29T08:44:37.955Z,3.80
2022-09-29T08:47:41.616Z,3.30
2022-09-29T08:50:22.773Z,3.40
2022-09-29T08:52:58.075Z,2.90
2022-09-29T08:55:47.096Z,3.20
2022-09-29T08:58:17.072Z,3.40
2022-09-29T09:00:51.475Z,4.00
2022-09-29T09:03:50.798Z,3.20
2022-09-29T09:06:46.225Z,3.90
2022-09-29T09:09:56.560Z,2.80
2022-09-29T09:12:56.669Z,3.10
2022-09-29T09:15:58.660Z,4.40
2022-09-29T09:18:45.790Z,2.70
2022-09-29T09:21:44.704Z,2.70
2022-09-29T09:24:48.422Z,3.40
2022-09-29T09:27:23.835Z,2.80
2022-09-29T09:30:02.694Z,3.00
2022-09-29T09:32:34.209Z,3.20
2022-09-29T09:35:24.371Z,2.70
2022-09-29T09:37:58.198Z,2.40
2022-09-29T09:40:51.388Z,2.00
2022-09-29T09:43:25.237Z,3.30
2022-09-29T09:46:36.039Z,3.60
2022-09-29T09:52:04.962Z,3.30
2022-09-29T09:54:39.098Z,1.90
2022-09-29T09:57:12.942Z,3.20
2022-09-29T10:00:00.295Z,1.90
2022-09-29T10:02:30.968Z,2.40
2022-09-29T10:04:59.688Z,3.20
2022-09-29T10:07:30.581Z,2.20
2022-09-29T10:10:03.691Z,1.80
2022-09-29T10:12:32.237Z,2.10
2022-09-29T10:15:12.593Z,2.00
2022-09-29T10:17:47.031Z,2.40
2022-09-29T10:20:32.050Z,2.00
2022-09-29T10:23:32.359Z,1.90
2022-09-29T10:26:15.191Z,2.20
2022-09-29T10:28:49.394Z,1.70
2022-09-29T10:31:21.290Z,2.30
2022-09-29T10:33:53.078Z,2.30
2022-09-29T10:36:23.795Z,1.50
2022-09-29T10:38:54.056Z,1.50
2022-09-29T10:41:22.370Z,2.90
2022-09-29T10:43:53.018Z,1.60
2022-09-29T11:06:17.398Z,2.10
2022-09-29T11:09:02.012Z,2.60
2022-09-29T11:11:57.949Z,3.10
2022-09-29T11:14:37.576Z,6.50
2022-09-29T11:17:29.940Z,4.20
2022-09-29T11:20:04.150Z,3.20
2022-09-29T11:22:50.811Z,1.40
2022-09-29T11:25:27.280Z,2.00
2022-09-29T11:28:24.525Z,1.40
2022-09-29T11:31:09.353Z,2.20
2022-09-29T11:33:40.140Z,1.40
2022-09-29T11:36:32.302Z,1.40
2022-09-29T11:39:28.266Z,2.80
2022-09-29T11:42:18.205Z,1.70
2022-09-29T11:44:52.081Z,1.40
2022-09-29T11:47:21.103Z,1.80
2022-09-29T11:50:07.737Z,2.10
2022-09-29T11:52:54.205Z,1.80
2022-09-29T11:55:33.464Z,3.10
2022-09-29T11:58:20.504Z,2.90
2022-09-29T12:01:05.120Z,5.20
2022-09-29T12:04:11.512Z,1.80
2022-09-29T12:07:01.587Z,3.90
2022-09-29T12:09:35.378Z,1.70
2022-09-29T12:12:23.652Z,2.30
2022-09-29T12:14:58.836Z,2.80
2022-09-29T12:17:31.348Z,2.50
2022-09-29T12:20:06.345Z,1.70
2022-09-29T12:22:36.963Z,1.80
2022-09-29T12:25:12.460Z,2.90
2022-09-29T12:27:42.889Z,2.10
2022-09-29T12:30:26.313Z,2.00
2022-09-29T12:33:14.634Z,2.60
2022-09-29T12:35:50.885Z,1.70
2022-09-29T12:38:28.014Z,4.40
2022-09-29T12:41:25.662Z,1.90
2022-09-29T12:44:11.932Z,1.90
2022-09-29T12:46:48.916Z,4.00
2022-09-29T12:49:28.087Z,1.90
2022-09-29T12:51:57.580Z,1.90
2022-09-29T12:54:37.146Z,2.00
2022-09-29T12:57:16.109Z,3.20
2022-09-29T12:59:47.342Z,8.90
2022-09-29T13:02:45.771Z,2.70
2022-09-29T13:05:33.606Z,4.10
2022-09-29T13:08:08.108Z,2.10
2022-09-29T13:11:14.760Z,2.40
2022-09-29T13:14:04.884Z,2.30
2022-09-29T13:16:56.983Z,2.40
2022-09-29T13:19:59.666Z,4.60
2022-09-29T13:23:02.604Z,2.40
2022-09-29T13:25:51.723Z,2.80
2022-09-29T13:28:34.076Z,2.70
2022-09-29T13:31:07.556Z,6.30
2022-09-29T13:33:36.895Z,3.40
2022-09-29T13:36:05.623Z,3.50
2022-09-29T13:38:37.623Z,2.20
2022-09-29T13:41:23.870Z,3.10
2022-09-29T13:43:52.090Z,2.20
2022-09-29T13:46:32.380Z,1.70
2022-09-29T13:49:09.633Z,2.80
2022-09-29T13:52:16.688Z,2.30
2022-09-29T13:54:45.147Z,4.80
2022-09-29T13:57:13.546Z,2.30
2022-09-29T14:00:03.580Z,21.60
2022-09-29T14:02:41.955Z,14.30
2022-09-29T14:05:25.205Z,1.70
2022-09-29T14:07:57.523Z,3.50
2022-09-29T14:10:43.635Z,2.00
2022-09-29T14:13:27.499Z,3.60
2022-09-29T14:16:15.799Z,3.00
2022-09-29T14:18:46.738Z,1.70
2022-09-29T14:21:49.972Z,2.40
2022-09-29T14:24:42.296Z,3.20
2022-09-29T14:27:22.122Z,6.00
2022-09-29T14:30:18.045Z,3.20
2022-09-29T14:32:48.639Z,2.10
2022-09-29T14:35:22.014Z,4.20
2022-09-29T14:37:59.456Z,3.50
2022-09-29T14:40:30.895Z,6.30
2022-09-29T14:43:34.502Z,2.10
2022-09-29T14:46:40.246Z,5.60
2022-09-29T14:49:45.726Z,3.30
2022-09-29T14:52:23.266Z,5.20
2022-09-29T14:57:42.762Z,3.70
2022-09-29T15:00:20.640Z,3.70
2022-09-29T15:02:59.778Z,4.70
2022-09-29T15:05:35.393Z,5.10
2022-09-29T15:08:23.505Z,6.00
2022-09-29T15:10:51.993Z,5.80
2022-09-29T15:13:31.809Z,4.70
2022-09-29T15:16:13.180Z,5.70
2022-09-29T15:18:53.337Z,3.80
2022-09-29T15:21:32.548Z,4.50
2022-09-29T15:24:04.470Z,3.30
2022-09-29T15:26:34.354Z,4.60
2022-09-29T15:29:06.769Z,3.40
2022-09-29T15:31:36.131Z,2.50
2022-09-29T15:34:04.860Z,2.70
2022-09-29T15:36:38.452Z,2.40
2022-09-29T15:39:13.818Z,3.60
2022-09-29T15:41:45.176Z,4.00
2022-09-29T15:44:22.419Z,3.70
2022-09-29T15:46:52.770Z,3.20
2022-09-29T15:49:25.954Z,3.00
2022-09-29T15:52:03.179Z,2.70
2022-09-29T15:54:35.106Z,2.20
2022-09-29T15:57:22.772Z,4.10
2022-09-29T15:59:54.339Z,4.40
2022-09-29T16:02:30.641Z,4.40
2022-09-29T16:05:03.115Z,3.60
2022-09-29T16:07:35.680Z,4.40
2022-09-29T16:10:21.296Z,3.00
2022-09-29T16:13:02.387Z,3.80
2022-09-29T16:15:49.055Z,5.00
2022-09-29T16:18:23.773Z,12.50
2022-09-29T16:20:59.103Z,13.20
2022-09-29T16:23:50.124Z,12.10
2022-09-29T16:26:32.910Z,11.00
2022-09-29T16:29:09.930Z,10.00
2022-09-29T16:31:40.350Z,7.20
2022-09-29T16:34:30.951Z,6.80
2022-09-29T16:37:00.179Z,6.00
2022-09-29T16:39:39.821Z,7.00
2022-09-29T16:42:19.959Z,6.90
2022-09-29T16:44:53.467Z,6.50
2022-09-29T16:47:33.019Z,5.20
2022-09-29T16:50:14.344Z,6.40
2022-09-29T16:52:50.756Z,6.10
2022-09-29T16:55:28.291Z,5.30
2022-09-29T16:58:13.174Z,21.80
2022-09-29T17:00:41.953Z,14.60
2022-09-29T17:03:10.387Z,9.70
2022-09-29T17:05:43.894Z,8.30
2022-09-29T17:08:24.145Z,8.30
2022-09-29T17:10:54.424Z,7.40
2022-09-29T17:13:23.870Z,8.90
2022-09-29T17:15:52.899Z,7.70
2022-09-29T17:18:25.199Z,8.50
2022-09-29T17:20:53.551Z,9.10
2022-09-29T17:23:21.812Z,6.10
2022-09-29T17:25:50.200Z,5.30
2022-09-29T17:28:24.824Z,6.20
2022-09-29T17:30:55.769Z,6.10
2022-09-29T17:35:55.881Z,13.30
2022-09-29T17:38:25.886Z,51.80
2022-09-29T17:41:03.973Z,32.40
2022-09-29T17:43:32.777Z,56.30
2022-09-29T17:46:01.844Z,82.90
2022-09-29T17:48:32.926Z,98.20
2022-09-29T17:51:04.299Z,102.40
2022-09-29T17:53:34.223Z,92.00
2022-09-29T17:56:03.424Z,84.80
2022-09-29T17:58:31.675Z,82.60
2022-09-29T18:01:00.256Z,78.30
2022-09-29T18:03:29.509Z,50.00
2022-09-29T18:05:58.916Z,48.10
2022-09-29T18:08:29.612Z,47.40
2022-09-29T18:11:00.481Z,57.20
2022-09-29T18:13:31.775Z,74.40
2022-09-29T18:16:01.810Z,67.80
2022-09-29T18:18:30.157Z,52.50
2022-09-29T18:20:58.429Z,57.20
2022-09-29T18:23:26.881Z,63.60
2022-09-29T18:25:55.708Z,64.20
2022-09-29T18:28:24.138Z,65.40
2022-09-29T18:30:58.217Z,76.40
2022-09-29T18:33:28.415Z,73.90
2022-09-29T18:35:56.938Z,117.80
2022-09-29T18:38:25.312Z,97.90
2022-09-29T18:40:55.524Z,84.70
2022-09-29T18:43:25.984Z,72.60
2022-09-29T18:45:58.367Z,71.80
2022-09-29T18:48:26.596Z,68.50
2022-09-29T18:50:56.839Z,60.40
2022-09-29T18:53:25.528Z,64.40
2022-09-29T18:55:57.628Z,57.70
2022-09-29T18:58:25.926Z,36.10
2022-09-29T19:00:56.028Z,39.60
2022-09-29T19:03:27.236Z,32.40
2022-09-29T19:05:56.664Z,37.00
2022-09-29T19:08:25.240Z,43.30
2022-09-29T19:10:57.876Z,47.80
2022-09-29T19:13:26.176Z,44.10
2022-09-29T19:15:59.443Z,49.20
2022-09-29T19:18:28.404Z,44.80
2022-09-29T19:20:59.713Z,43.10
2022-09-29T19:23:28.137Z,47.50
2022-09-29T19:25:58.748Z,43.30
2022-09-29T19:28:27.572Z,37.80
2022-09-29T19:31:04.781Z,48.80
2022-09-29T19:33:33.576Z,60.10
2022-09-29T19:36:05.557Z,53.90
2022-09-29T19:38:35.149Z,55.10
2022-09-29T19:41:04.575Z,47.90
2022-09-29T19:43:32.771Z,34.40
2022-09-29T19:46:07.678Z,25.00
2022-09-29T19:48:43.933Z,27.70
2022-09-29T19:51:34.359Z,26.30
2022-09-29T19:54:10.746Z,39.20
2022-09-29T19:56:44.426Z,36.00
2022-09-29T19:59:14.430Z,36.80
2022-09-29T20:01:45.536Z,40.80
2022-09-29T20:04:20.018Z,39.80
2022-09-29T20:06:48.199Z,39.90
2022-09-29T20:09:18.357Z,36.70
2022-09-29T20:11:47.208Z,45.90
2022-09-29T20:14:17.239Z,37.60
2022-09-29T20:16:46.320Z,25.10
2022-09-29T20:19:16.406Z,30.30
2022-09-29T20:21:46.972Z,36.50
2022-09-29T20:24:17.424Z,26.80
2022-09-29T20:26:47.926Z,28.00
2022-09-29T20:29:19.226Z,27.10
2022-09-29T20:31:48.210Z,27.10
2022-09-29T20:34:18.693Z,25.40
2022-09-29T20:36:50.871Z,24.60
2022-09-29T20:39:22.194Z,20.80
2022-09-29T20:41:50.733Z,21.70
2022-09-29T20:44:20.085Z,26.80
2022-09-29T20:46:48.562Z,24.90
2022-09-29T20:49:18.071Z,25.20
2022-09-29T20:51:46.330Z,20.80
2022-09-29T20:54:14.573Z,24.20
2022-09-29T20:56:42.957Z,21.40
2022-09-29T20:59:16.374Z,21.90
2022-09-29T21:01:45.778Z,21.80
2022-09-29T21:04:18.091Z,20.00
2022-09-29T21:06:49.590Z,20.40
2022-09-29T21:09:22.093Z,27.00
2022-09-29T21:11:52.841Z,27.30
2022-09-29T21:14:24.434Z,28.40
2022-09-29T21:16:53.404Z,30.60
2022-09-29T21:19:26.760Z,25.00
2022-09-29T21:21:56.342Z,26.80
2022-09-29T21:24:25.019Z,24.00
2022-09-29T21:26:53.733Z,25.70
2022-09-29T21:29:22.319Z,25.40
2022-09-29T21:31:51.108Z,21.40
2022-09-29T21:34:20.147Z,21.50
2022-09-29T21:36:48.948Z,20.90
2022-09-29T21:39:17.244Z,24.00
2022-09-29T21:41:46.120Z,22.00
2022-09-29T21:44:18.044Z,20.00
2022-09-29T21:46:46.356Z,23.60
2022-09-29T21:49:16.576Z,20.10
2022-09-29T21:51:50.075Z,19.00
2022-09-29T21:54:23.587Z,17.30
2022-09-29T21:56:53.035Z,19.70
2022-09-29T21:59:22.892Z,17.40
2022-09-29T22:01:52.467Z,22.70
2022-09-29T22:04:21.432Z,21.60
2022-09-29T22:06:50.034Z,30.40
2022-09-29T22:09:20.690Z,20.80
2022-09-29T22:11:50.489Z,24.20
2022-09-29T22:14:20.079Z,34.70
2022-09-29T22:16:48.380Z,29.10
2022-09-29T22:19:24.872Z,24.70
2022-09-29T22:22:01.130Z,20.40
2022-09-29T22:24:29.673Z,18.40
2022-09-29T22:26:57.814Z,19.70
2022-09-29T22:29:26.088Z,24.20
2022-09-29T22:31:54.553Z,18.80
2022-09-29T22:34:22.722Z,22.20
2022-09-29T22:36:51.371Z,22.20
2022-09-29T22:39:19.832Z,21.40
2022-09-29T22:41:50.978Z,18.00
2022-09-29T22:44:19.426Z,17.50
2022-09-29T22:46:47.979Z,16.00
2022-09-29T22:49:16.249Z,17.80
2022-09-29T22:51:44.414Z,20.40
2022-09-29T22:54:14.320Z,18.40
2022-09-29T22:56:43.759Z,22.90
2022-09-29T22:59:13.294Z,21.60
2022-09-29T23:01:42.358Z,18.00
2022-09-29T23:04:10.739Z,19.80
2022-09-29T23:06:39.390Z,17.90
2022-09-29T23:09:10.885Z,17.40
2022-09-29T23:11:38.975Z,17.10
2022-09-29T23:14:07.215Z,18.00
2022-09-29T23:16:35.715Z,17.80
2022-09-29T23:19:04.321Z,15.00
2022-09-29T23:21:34.275Z,25.50
2022-09-29T23:24:02.661Z,68.60
2022-09-29T23:26:31.400Z,52.70
2022-09-29T23:29:00.844Z,37.60
2022-09-29T23:31:29.443Z,24.50
2022-09-29T23:33:59.223Z,22.40
2022-09-29T23:36:29.234Z,21.40
2022-09-29T23:39:09.971Z,20.70
2022-09-29T23:41:46.503Z,23.20
2022-09-29T23:44:18.595Z,18.60
2022-09-29T23:46:47.385Z,18.60
2022-09-29T23:49:18.801Z,20.00
2022-09-29T23:51:50.083Z,19.70
2022-09-29T23:54:21.151Z,24.50
2022-09-29T23:56:51.328Z,22.70
2022-09-29T23:59:20.388Z,19.80
